Time;durP1;ratioP1;P1;durP2;ratioP2;P2;SDS_P1;SDS_P2;PMS_P1;PMS_P2;Temp;Humidity;BMP_temperature;BMP_pressure;BME280_temperature;BME280_humidity;BME280_pressure;Samples;Min_cycle;Max_cycle;Signal;HPM_P1;HPM_P2
2023/10/14 00:00:37;;;;;;;0.60;0.20;;;16.90;99.90;;;;;;4205899;28;20273;-95
2023/10/14 00:02:42;;;;;;;1.65;0.10;;;16.60;99.90;;;;;;4190915;28;20178;-94
2023/10/14 00:04:59;;;;;;;0.10;0.10;;;16.60;99.90;;;;;;4206546;28;20193;-95
2023/10/14 00:07:09;;;;;;;0.20;0.03;;;16.80;99.90;;;;;;4190069;28;20191;-93
2023/10/14 00:09:14;;;;;;;0.08;0.08;;;16.80;99.90;;;;;;4191125;28;20159;-95
2023/10/14 00:11:15;;;;;;;0.20;0.10;;;16.90;99.90;;;;;;4208468;28;20208;-93
2023/10/14 00:13:16;;;;;;;1.45;0.10;;;16.70;99.90;;;;;;4205831;28;20167;-93
2023/10/14 00:15:17;;;;;;;0.10;0.08;;;16.70;99.90;;;;;;4172256;28;20251;-92
2023/10/14 00:17:18;;;;;;;0.20;0.13;;;16.60;99.90;;;;;;4188986;28;20198;-93
2023/10/14 00:19:21;;;;;;;0.32;0.10;;;16.50;99.90;;;;;;4169174;28;20175;-91
2023/10/14 00:21:26;;;;;;;0.70;0.08;;;16.50;99.90;;;;;;4171301;28;20168;-94
2023/10/14 00:23:27;;;;;;;0.00;0.00;;;16.20;99.90;;;;;;4203750;28;20222;-94
2023/10/14 00:25:28;;;;;;;0.20;0.10;;;15.90;99.90;;;;;;4171478;28;20158;-93
2023/10/14 00:27:33;;;;;;;0.30;0.15;;;15.90;99.90;;;;;;4177963;28;20190;-94
2023/10/14 00:29:43;;;;;;;10.40;0.10;;;15.90;99.90;;;;;;4188659;28;20231;-95
2023/10/14 00:31:47;;;;;;;0.00;0.00;;;15.90;99.90;;;;;;4192434;28;20203;-94
2023/10/14 00:33:49;;;;;;;0.00;0.00;;;15.80;99.90;;;;;;4193812;28;20156;-95
2023/10/14 00:35:56;;;;;;;0.08;0.08;;;15.90;99.90;;;;;;4175345;28;20942;-92
2023/10/14 00:38:02;;;;;;;0.30;0.15;;;15.80;99.90;;;;;;4176221;28;20271;-93
2023/10/14 00:40:12;;;;;;;0.10;0.10;;;15.80;99.90;;;;;;4192698;28;20222;-93
2023/10/14 00:42:13;;;;;;;0.10;0.10;;;15.90;99.90;;;;;;4176763;28;20172;-93
2023/10/14 00:44:14;;;;;;;0.85;0.10;;;15.80;99.90;;;;;;4173286;28;20211;-92
2023/10/14 00:46:16;;;;;;;3.95;0.20;;;15.60;99.90;;;;;;4178714;28;20265;-93
2023/10/14 00:48:26;;;;;;;0.55;0.30;;;15.60;99.90;;;;;;4209001;28;20566;-93
2023/10/14 00:50:33;;;;;;;0.77;0.10;;;15.80;99.90;;;;;;4191568;28;20186;-92
2023/10/14 00:52:35;;;;;;;2.75;0.43;;;15.50;99.90;;;;;;4174482;28;20228;-93
2023/10/14 00:56:47;;;;;;;2.63;0.10;;;15.50;99.90;;;;;;4189267;28;20215;-92
2023/10/14 00:58:51;;;;;;;3.67;0.20;;;15.40;99.90;;;;;;4190626;28;20171;-94
2023/10/14 01:00:58;;;;;;;1.63;0.30;;;15.30;99.90;;;;;;4179008;28;20204;-92
2023/10/14 01:03:01;;;;;;;2.20;0.35;;;15.30;99.90;;;;;;4175977;28;20227;-93
2023/10/14 01:05:18;;;;;;;2.85;0.75;;;15.10;99.90;;;;;;4192886;28;20210;-96
2023/10/14 01:07:21;;;;;;;1.48;0.20;;;15.10;99.90;;;;;;4189027;28;20630;-92
2023/10/14 01:09:31;;;;;;;0.85;0.32;;;15.00;99.90;;;;;;4192045;28;20203;-93
2023/10/14 01:11:35;;;;;;;3.47;0.52;;;15.00;99.90;;;;;;4188491;28;20274;-93
2023/10/14 01:13:36;;;;;;;3.65;0.60;;;15.10;99.90;;;;;;4191988;28;20163;-92
2023/10/14 01:15:43;;;;;;;1.30;0.35;;;15.10;99.90;;;;;;4192951;28;20208;-93
2023/10/14 01:17:52;;;;;;;3.88;0.60;;;15.10;99.90;;;;;;4191574;28;20159;-92
2023/10/14 01:19:54;;;;;;;3.92;0.60;;;15.20;99.90;;;;;;4193404;28;20163;-92
2023/10/14 01:21:57;;;;;;;1.80;0.43;;;15.20;99.90;;;;;;4175378;28;20168;-93
2023/10/14 01:23:58;;;;;;;6.38;0.45;;;15.20;99.90;;;;;;4196562;28;20203;-92
2023/10/14 01:26:04;;;;;;;0.80;0.28;;;15.20;99.90;;;;;;4196000;28;20190;-92
2023/10/14 01:28:15;;;;;;;1.73;0.40;;;15.20;99.90;;;;;;4190880;28;20178;-92
2023/10/14 01:30:37;;;;;;;1.70;0.47;;;15.30;99.90;;;;;;4184171;28;20180;-92
2023/10/14 01:34:42;;;;;;;5.75;0.55;;;15.40;99.90;;;;;;4191711;28;20225;-93
2023/10/14 01:36:44;;;;;;;3.65;0.50;;;15.20;99.90;;;;;;4175234;28;20743;-92
2023/10/14 01:38:57;;;;;;;1.45;0.57;;;15.20;99.90;;;;;;4208779;28;20179;-93
2023/10/14 01:44:44;;;;;;;3.65;0.65;;;15.20;99.90;;;;;;4182808;28;20245;-96
2023/10/14 01:50:52;;;;;;;5.68;0.40;;;15.40;99.90;;;;;;4138833;28;20184;-95
2023/10/14 01:53:45;;;;;;;7.57;1.58;;;15.10;99.90;;;;;;4159973;28;20191;-94
2023/10/14 01:56:09;;;;;;;3.42;0.52;;;14.90;99.90;;;;;;4134994;28;20213;-94
2023/10/14 02:02:48;;;;;;;1.92;0.85;;;14.70;99.90;;;;;;4186847;28;20186;-96
2023/10/14 02:04:17;;;;;;;6.22;0.40;;;14.80;99.90;;;;;;4191708;28;20297;-96
2023/10/14 02:07:46;;;;;;;7.70;1.38;;;14.70;99.90;;;;;;4189645;28;20278;-95
2023/10/14 02:10:46;;;;;;;;;;;;;;;;;;;;;
2023/10/14 02:13:11;;;;;;;8.80;0.90;;;14.40;99.90;;;;;;4183291;28;20171;-94
2023/10/14 02:15:13;;;;;;;9.65;1.70;;;14.40;99.90;;;;;;4194995;28;20179;-95
2023/10/14 02:18:11;;;;;;;6.10;0.82;;;14.40;99.90;;;;;;4187979;28;20235;-96
2023/10/14 02:24:37;;;;;;;4.22;0.57;;;14.40;99.90;;;;;;4140876;28;20232;-95
2023/10/14 02:38:34;;;;;;;2.35;0.50;;;14.00;99.90;;;;;;4090451;29;20282;-96
2023/10/14 02:41:04;;;;;;;5.03;0.85;;;14.10;99.90;;;;;;4057622;29;20244;-95
2023/10/14 02:43:16;;;;;;;7.13;0.40;;;13.80;99.90;;;;;;4041306;29;20309;-96
2023/10/14 02:49:25;;;;;;;4.55;0.50;;;13.70;99.90;;;;;;4104960;29;20683;-95
2023/10/14 03:13:02;;;;;;;2.47;0.55;;;13.40;99.90;;;;;;4091288;29;20202;-96
2023/10/14 03:15:52;;;;;;;3.00;0.20;;;13.10;99.90;;;;;;4073335;29;20208;-96
2023/10/14 03:20:45;;;;;;;0.85;0.40;;;13.20;99.90;;;;;;4057987;29;20335;-96
2023/10/14 03:23:57;;;;;;;3.33;0.80;;;13.30;99.90;;;;;;4059032;29;20791;-95
2023/10/14 03:26:37;;;;;;;1.85;0.73;;;13.10;99.90;;;;;;4023980;29;20732;-95
2023/10/14 03:29:59;;;;;;;6.47;0.70;;;13.00;99.90;;;;;;4061457;29;20177;-96
2023/10/14 03:32:22;;;;;;;1.75;0.40;;;12.70;99.90;;;;;;4083279;29;20187;-96
2023/10/14 03:44:35;;;;;;;5.70;1.15;;;12.60;99.90;;;;;;4107358;28;20221;-96
2023/10/14 03:47:14;;;;;;;3.83;0.95;;;12.60;99.90;;;;;;4116745;28;20313;-95
2023/10/14 03:49:55;;;;;;;1.55;0.32;;;12.60;99.90;;;;;;4125738;28;20177;-95
2023/10/14 03:53:24;;;;;;;3.13;1.17;;;12.60;99.90;;;;;;4073136;29;20183;-95
2023/10/14 03:55:49;;;;;;;6.60;0.45;;;12.30;99.90;;;;;;4055005;29;20317;-95
2023/10/14 03:58:41;;;;;;;5.85;0.35;;;12.20;99.90;;;;;;4092917;28;20183;-96
2023/10/14 04:02:07;;;;;;;1.27;0.50;;;12.20;99.90;;;;;;4123533;28;20176;-95
2023/10/14 04:10:09;;;;;;;8.82;0.75;;;12.10;99.90;;;;;;4221586;28;20176;-96
2023/10/14 04:13:12;;;;;;;;;;;;;;;;;;;;;
2023/10/14 04:15:45;;;;;;;4.22;0.40;;;12.00;99.90;;;;;;4199890;28;20248;-95
2023/10/14 04:22:09;;;;;;;;;;;;;;;;;;;;;
2023/10/14 04:31:06;;;;;;;0.63;0.32;;;11.90;99.90;;;;;;4073477;29;20191;-95
2023/10/14 04:34:22;;;;;;;;;;;;;;;;;;;;;
2023/10/14 04:37:08;;;;;;;3.92;0.60;;;11.80;99.90;;;;;;4041315;29;20726;-96
2023/10/14 04:39:29;;;;;;;5.45;0.60;;;11.80;99.90;;;;;;4059701;29;20192;-96
2023/10/14 04:44:21;;;;;;;6.43;0.90;;;11.70;99.90;;;;;;4096062;28;20299;-95
2023/10/14 04:47:38;;;;;;;0.60;0.30;;;12.00;99.90;;;;;;4138500;28;20276;-94
2023/10/14 04:50:23;;;;;;;4.47;1.00;;;12.00;99.90;;;;;;4087865;29;20258;-96
2023/10/14 04:53:23;;;;;;;;;;;;;;;;;;;;;
2023/10/14 04:59:32;;;;;;;5.75;0.50;;;11.70;99.90;;;;;;4043182;29;20227;-95
2023/10/14 05:01:33;;;;;;;4.72;0.40;;;11.70;99.90;;;;;;4046515;29;20189;-96
2023/10/14 05:06:52;;;;;;;0.88;0.30;;;11.70;99.90;;;;;;4080112;29;20211;-94
2023/10/14 05:08:56;;;;;;;5.10;0.82;;;11.50;99.90;;;;;;4068630;29;20183;-96
2023/10/14 05:11:25;;;;;;;1.58;0.40;;;11.40;99.90;;;;;;4079920;29;20176;-95
2023/10/14 05:13:34;;;;;;;2.47;0.70;;;11.40;99.90;;;;;;4132472;28;20581;-95
2023/10/14 05:15:43;;;;;;;2.72;0.30;;;11.50;99.90;;;;;;4115126;28;20182;-95
2023/10/14 05:17:52;;;;;;;2.58;0.93;;;11.50;99.90;;;;;;4117225;28;20201;-94
2023/10/14 05:19:59;;;;;;;3.28;0.47;;;11.60;99.90;;;;;;4134940;28;20216;-94
2023/10/14 05:22:05;;;;;;;5.38;0.63;;;11.50;99.90;;;;;;4200986;28;20170;-94
2023/10/14 05:24:09;;;;;;;6.35;0.85;;;11.50;99.90;;;;;;4200736;28;20705;-96
2023/10/14 05:26:14;;;;;;;4.65;1.42;;;11.40;99.90;;;;;;4184859;28;20187;-94
2023/10/14 05:28:22;;;;;;;4.97;0.90;;;11.50;99.90;;;;;;4184178;28;20182;-94
2023/10/14 05:30:48;;;;;;;;;;;;;;;;;;;;;
2023/10/14 05:33:06;;;;;;;4.85;0.43;;;11.30;99.90;;;;;;4200662;28;20257;-95
2023/10/14 05:35:22;;;;;;;5.43;0.73;;;11.20;99.90;;;;;;4184291;28;20517;-95
2023/10/14 05:37:23;;;;;;;3.10;0.73;;;11.10;99.90;;;;;;4184232;28;20195;-94
2023/10/14 05:39:36;;;;;;;2.42;0.73;;;11.00;99.90;;;;;;4200461;28;20159;-95
2023/10/14 05:41:38;;;;;;;5.75;0.35;;;10.90;99.90;;;;;;4185588;28;20203;-96
2023/10/14 05:43:51;;;;;;;0.30;0.20;;;10.90;99.90;;;;;;4184921;28;20211;-93
2023/10/14 05:46:03;;;;;;;9.25;1.10;;;10.90;99.90;;;;;;4184319;28;20741;-94
2023/10/14 05:48:09;;;;;;;4.45;0.28;;;10.80;99.90;;;;;;4185321;28;20241;-95
2023/10/14 05:50:19;;;;;;;3.20;0.70;;;10.80;99.90;;;;;;4200909;28;20207;-95
2023/10/14 05:52:27;;;;;;;1.20;0.28;;;10.80;99.90;;;;;;4200663;28;20179;-95
2023/10/14 05:54:28;;;;;;;1.88;0.55;;;10.80;99.90;;;;;;4200885;28;20715;-95
2023/10/14 05:56:29;;;;;;;0.32;0.10;;;10.80;99.90;;;;;;4200587;28;20190;-94
2023/10/14 05:58:30;;;;;;;5.82;0.85;;;10.90;99.90;;;;;;4200711;28;20175;-94
2023/10/14 06:00:34;;;;;;;9.15;0.77;;;10.80;99.90;;;;;;4184851;28;20171;-95
2023/10/14 06:02:37;;;;;;;0.50;0.40;;;10.80;99.90;;;;;;4183832;28;20183;-94
2023/10/14 06:04:41;;;;;;;1.45;0.30;;;10.80;99.90;;;;;;4184046;28;20215;-94
2023/10/14 06:06:42;;;;;;;1.88;0.55;;;10.80;99.90;;;;;;4184227;28;20233;-95
2023/10/14 06:08:46;;;;;;;6.75;0.45;;;10.80;99.90;;;;;;4184131;28;20163;-95
2023/10/14 06:11:10;;;;;;;1.35;0.25;;;10.90;99.90;;;;;;4185422;28;20171;-95
2023/10/14 06:13:20;;;;;;;1.85;0.50;;;11.00;99.90;;;;;;4186201;28;20311;-93
2023/10/14 06:15:40;;;;;;;2.20;0.75;;;10.90;99.90;;;;;;4194781;28;20151;-94
2023/10/14 06:20:41;;;;;;;;;;;;;;;;;;;;;
2023/10/14 06:22:46;;;;;;;3.83;0.38;;;10.70;99.90;;;;;;4213815;28;20178;-95
2023/10/14 06:24:50;;;;;;;10.07;2.35;;;10.60;99.90;;;;;;4190878;28;20180;-94
2023/10/14 06:29:17;;;;;;;0.40;0.40;;;10.60;99.90;;;;;;4174698;28;20186;-95
2023/10/14 06:31:22;;;;;;;5.85;1.33;;;10.70;99.90;;;;;;4212992;28;20269;-92
2023/10/14 06:33:26;;;;;;;4.35;0.60;;;10.90;99.90;;;;;;4191518;28;20619;-94
2023/10/14 06:35:37;;;;;;;6.13;0.90;;;11.10;99.90;;;;;;4184450;28;20175;-95
2023/10/14 06:37:42;;;;;;;0.90;0.52;;;11.30;99.90;;;;;;4183030;28;20259;-94
2023/10/14 06:39:46;;;;;;;4.82;0.85;;;11.30;99.90;;;;;;4183207;28;20172;-94
2023/10/14 06:42:17;;;;;;;4.70;1.13;;;11.60;99.90;;;;;;4185299;28;20176;-95
2023/10/14 06:44:27;;;;;;;4.93;0.50;;;11.70;99.90;;;;;;4185305;28;20306;-95
2023/10/14 06:46:33;;;;;;;5.97;0.95;;;11.90;99.90;;;;;;4181109;28;20195;-95
2023/10/14 06:48:45;;;;;;;3.05;0.40;;;12.20;99.90;;;;;;4200305;28;20240;-94
2023/10/14 06:51:12;;;;;;;6.50;0.70;;;12.40;99.90;;;;;;4184669;28;20163;-95
2023/10/14 06:53:18;;;;;;;3.05;0.63;;;12.70;99.90;;;;;;4200108;28;20288;-93
2023/10/14 06:55:26;;;;;;;2.53;0.73;;;12.70;99.90;;;;;;4185110;28;20168;-94
2023/10/14 06:57:28;;;;;;;0.52;0.15;;;12.40;99.90;;;;;;4187932;28;20241;-95
2023/10/14 06:59:53;;;;;;;1.85;0.70;;;12.30;99.90;;;;;;4215590;28;20236;-94
2023/10/14 07:01:59;;;;;;;3.35;1.50;;;12.20;99.90;;;;;;4194389;28;20183;-94
2023/10/14 07:04:00;;;;;;;1.52;0.40;;;12.10;99.90;;;;;;4196001;28;20246;-94
2023/10/14 07:06:05;;;;;;;6.38;0.50;;;12.10;99.90;;;;;;4194817;28;20180;-93
2023/10/14 07:08:11;;;;;;;0.80;0.43;;;11.90;99.90;;;;;;4195620;28;20255;-94
2023/10/14 07:10:17;;;;;;;4.20;0.98;;;11.80;99.90;;;;;;4211920;28;20268;-95
2023/10/14 07:12:24;;;;;;;3.08;0.50;;;11.80;99.90;;;;;;4196312;28;20174;-94
2023/10/14 07:14:25;;;;;;;0.40;0.10;;;11.90;99.90;;;;;;4194912;28;20160;-93
2023/10/14 07:16:29;;;;;;;1.92;0.73;;;12.20;99.90;;;;;;4190160;28;20193;-95
2023/10/14 07:18:40;;;;;;;4.30;0.85;;;12.10;99.90;;;;;;4182818;28;20687;-93
2023/10/14 07:20:57;;;;;;;3.03;0.47;;;12.20;99.90;;;;;;4183216;28;20305;-95
2023/10/14 07:23:00;;;;;;;3.25;0.35;;;12.40;99.90;;;;;;4183694;28;20183;-94
2023/10/14 07:25:03;;;;;;;0.10;0.10;;;12.20;99.90;;;;;;4184614;28;20175;-94
2023/10/14 07:27:04;;;;;;;4.70;0.93;;;12.10;99.90;;;;;;4184525;28;20195;-94
2023/10/14 07:29:08;;;;;;;5.18;1.25;;;12.20;99.90;;;;;;4183242;28;20749;-96
2023/10/14 07:31:11;;;;;;;4.45;1.33;;;12.20;99.90;;;;;;4183990;28;20176;-93
2023/10/14 07:33:17;;;;;;;3.25;0.73;;;12.10;99.90;;;;;;4183753;28;20164;-94
2023/10/14 07:35:31;;;;;;;2.25;0.57;;;12.00;99.90;;;;;;4183377;28;20194;-95
2023/10/14 07:37:45;;;;;;;6.75;1.23;;;12.00;99.90;;;;;;4183966;28;20175;-94
2023/10/14 07:39:52;;;;;;;4.18;1.05;;;12.00;99.90;;;;;;4183229;28;20175;-95
2023/10/14 07:41:59;;;;;;;3.47;1.42;;;12.20;99.90;;;;;;4183805;28;20179;-94
2023/10/14 07:44:00;;;;;;;10.38;0.70;;;12.30;99.90;;;;;;4185160;28;20651;-94
2023/10/14 07:46:03;;;;;;;2.80;0.30;;;12.50;99.90;;;;;;4184565;28;20218;-93
2023/10/14 07:48:12;;;;;;;2.28;0.57;;;12.60;99.90;;;;;;4183078;28;20176;-94
2023/10/14 07:50:26;;;;;;;2.53;0.90;;;12.60;99.90;;;;;;4200574;28;20183;-95
2023/10/14 07:52:54;;;;;;;1.23;0.68;;;12.80;99.90;;;;;;4182911;28;20164;-94
2023/10/14 07:54:56;;;;;;;2.72;0.30;;;13.00;99.90;;;;;;4183769;28;20167;-93
2023/10/14 07:56:59;;;;;;;6.53;0.80;;;13.60;99.90;;;;;;4183227;28;20249;-95
2023/10/14 07:59:01;;;;;;;1.90;0.70;;;14.20;99.90;;;;;;4200291;28;20166;-94
2023/10/14 08:01:06;;;;;;;1.98;0.80;;;15.10;99.90;;;;;;4183244;28;20176;-94
2023/10/14 08:03:09;;;;;;;6.60;0.73;;;15.90;99.90;;;;;;4182065;28;20206;-94
2023/10/14 08:05:10;;;;;;;5.75;0.65;;;16.40;99.90;;;;;;4182814;28;20647;-94
2023/10/14 08:07:14;;;;;;;2.83;0.55;;;16.70;99.90;;;;;;4183276;28;20207;-95
2023/10/14 08:09:28;;;;;;;10.77;1.55;;;17.00;99.90;;;;;;4184344;28;20175;-95
2023/10/14 08:11:36;;;;;;;1.73;0.52;;;17.20;99.90;;;;;;4182683;28;20167;-94
2023/10/14 08:13:38;;;;;;;2.55;0.52;;;18.00;99.90;;;;;;4200059;28;20273;-95
2023/10/14 08:15:43;;;;;;;7.18;0.93;;;18.40;99.90;;;;;;4182510;28;20532;-93
2023/10/14 08:17:45;;;;;;;4.90;1.10;;;18.80;99.90;;;;;;4182957;28;20179;-95
2023/10/14 08:19:46;;;;;;;7.68;0.50;;;18.50;99.90;;;;;;4192174;22;20219;-93
2023/10/14 08:21:50;;;;;;;4.18;0.63;;;19.00;99.90;;;;;;4164416;28;20184;-93
2023/10/14 08:23:51;;;;;;;5.78;0.73;;;19.00;99.90;;;;;;4197473;28;20210;-91
2023/10/14 08:25:56;;;;;;;0.90;0.40;;;19.30;99.90;;;;;;4194757;28;20196;-92
2023/10/14 08:27:57;;;;;;;4.72;1.10;;;19.00;99.90;;;;;;4164481;28;20216;-92
2023/10/14 08:30:00;;;;;;;4.32;0.60;;;19.10;99.90;;;;;;4148427;28;20181;-92
2023/10/14 08:32:01;;;;;;;8.88;0.85;;;18.90;99.90;;;;;;4148294;28;20181;-94
2023/10/14 08:34:07;;;;;;;9.23;1.00;;;18.20;99.90;;;;;;4164501;28;20206;-92
2023/10/14 08:36:07;;;;;;;5.10;0.70;;;18.20;99.90;;;;;;4148128;28;20227;-91
2023/10/14 08:38:11;;;;;;;2.60;0.63;;;18.70;99.90;;;;;;4164440;28;20677;-92
2023/10/14 08:40:16;;;;;;;3.50;0.50;;;19.00;99.90;;;;;;4164841;28;20164;-92
2023/10/14 08:42:17;;;;;;;5.20;0.70;;;19.40;99.90;;;;;;4164824;28;20262;-90
2023/10/14 08:44:24;;;;;;;9.63;0.65;;;19.60;99.90;;;;;;4148096;28;20787;-91
2023/10/14 08:46:29;;;;;;;6.00;1.05;;;19.90;99.90;;;;;;4164259;28;20192;-91
2023/10/14 08:48:32;;;;;;;4.15;0.65;;;19.60;99.90;;;;;;4180974;28;20270;-92
2023/10/14 08:50:33;;;;;;;5.38;0.50;;;19.70;99.90;;;;;;4181141;28;20171;-91
2023/10/14 08:52:37;;;;;;;3.22;0.45;;;19.10;99.90;;;;;;4183025;28;20172;-92
2023/10/14 08:54:42;;;;;;;2.83;0.43;;;18.70;99.90;;;;;;4167496;28;20176;-92
2023/10/14 08:56:44;;;;;;;5.57;0.65;;;19.10;99.90;;;;;;4134638;28;20201;-91
2023/10/14 08:58:45;;;;;;;2.67;0.65;;;19.60;99.90;;;;;;4184141;28;20183;-91
2023/10/14 09:00:46;;;;;;;0.50;0.32;;;19.50;99.90;;;;;;4151181;28;20176;-92
2023/10/14 09:02:53;;;;;;;5.22;0.70;;;19.50;99.90;;;;;;4134475;28;20177;-92
2023/10/14 09:04:55;;;;;;;7.32;0.70;;;19.60;99.90;;;;;;4183892;28;20187;-91
2023/10/14 09:07:02;;;;;;;4.63;0.60;;;19.40;99.90;;;;;;4134704;28;20201;-93
2023/10/14 09:09:13;;;;;;;4.25;0.75;;;19.30;99.90;;;;;;4167387;28;20218;-93
2023/10/14 09:11:36;;;;;;;2.97;0.63;;;19.10;99.90;;;;;;4184441;28;20172;-93
2023/10/14 09:13:37;;;;;;;3.00;1.13;;;19.10;99.90;;;;;;4184352;28;20168;-91
2023/10/14 09:15:40;;;;;;;10.48;1.27;;;19.10;99.90;;;;;;4167613;28;20206;-90
2023/10/14 09:17:41;;;;;;;2.65;0.30;;;19.20;99.90;;;;;;4167874;28;20175;-92
2023/10/14 09:19:47;;;;;;;3.53;1.02;;;19.70;99.90;;;;;;4151162;28;20188;-90
2023/10/14 09:21:48;;;;;;;2.72;0.32;;;19.90;99.90;;;;;;4151080;28;20356;-92
2023/10/14 09:23:50;;;;;;;5.45;1.05;;;19.70;99.90;;;;;;4134614;28;20251;-92
2023/10/14 09:25:55;;;;;;;4.75;1.00;;;19.80;99.90;;;;;;4167037;28;20264;-91
2023/10/14 09:27:56;;;;;;;2.45;0.30;;;19.40;99.90;;;;;;4167021;28;20184;-95
2023/10/14 09:29:57;;;;;;;9.25;0.73;;;19.90;99.90;;;;;;4150697;28;20203;-91
2023/10/14 09:31:59;;;;;;;4.38;0.93;;;19.80;99.90;;;;;;4150800;28;20192;-91
2023/10/14 09:34:00;;;;;;;5.22;1.50;;;19.60;99.90;;;;;;4167070;28;20164;-91
2023/10/14 09:36:11;;;;;;;3.25;0.50;;;19.60;99.90;;;;;;4150523;28;20735;-93
2023/10/14 09:38:15;;;;;;;3.10;0.50;;;19.30;99.90;;;;;;4166955;28;20195;-92
2023/10/14 09:40:16;;;;;;;3.88;0.90;;;19.00;99.90;;;;;;4167036;28;20628;-92
2023/10/14 09:42:21;;;;;;;4.40;1.23;;;18.60;99.90;;;;;;4134412;28;20197;-90
2023/10/14 09:44:24;;;;;;;4.50;0.55;;;18.00;99.90;;;;;;4150466;28;20212;-91
2023/10/14 09:46:27;;;;;;;11.05;1.08;;;18.10;99.90;;;;;;4134473;28;20669;-91
2023/10/14 09:48:34;;;;;;;6.20;0.77;;;17.80;99.90;;;;;;4166804;28;20187;-91
2023/10/14 09:50:36;;;;;;;3.63;0.73;;;17.50;99.90;;;;;;4150472;28;20169;-92
2023/10/14 09:52:40;;;;;;;4.57;0.50;;;17.10;99.90;;;;;;4134352;28;20209;-90
2023/10/14 09:54:42;;;;;;;2.72;0.55;;;16.90;99.90;;;;;;4166909;28;20172;-91
2023/10/14 09:56:46;;;;;;;14.23;1.40;;;16.70;99.90;;;;;;4166832;28;20219;-91
2023/10/14 09:58:47;;;;;;;3.08;0.68;;;16.70;99.90;;;;;;4133975;28;20165;-90
2023/10/14 10:00:49;;;;;;;3.50;0.35;;;16.50;99.90;;;;;;4150520;28;20235;-92
2023/10/14 10:02:52;;;;;;;2.70;0.73;;;16.50;99.90;;;;;;4166279;28;20247;-90
2023/10/14 10:04:53;;;;;;;5.40;0.52;;;16.40;99.90;;;;;;4182873;28;20301;-90
2023/10/14 10:07:20;;;;;;;7.70;1.63;;;16.40;99.90;;;;;;4183086;28;20191;-91
2023/10/14 10:09:47;;;;;;;5.95;0.95;;;16.30;99.90;;;;;;4145042;28;20193;-93
2023/10/14 10:11:52;;;;;;;1.45;0.70;;;15.90;99.90;;;;;;4149725;28;20240;-92
2023/10/14 10:13:54;;;;;;;3.40;0.80;;;15.90;99.90;;;;;;4154168;28;20179;-91
2023/10/14 10:16:05;;;;;;;5.60;0.90;;;15.90;99.90;;;;;;4166109;28;20191;-94
2023/10/14 10:18:12;;;;;;;4.72;0.85;;;16.10;99.90;;;;;;4165982;28;20231;-92
2023/10/14 10:20:16;;;;;;;2.42;0.80;;;16.10;99.90;;;;;;4149518;28;20676;-91
2023/10/14 10:22:17;;;;;;;13.60;1.73;;;16.00;99.90;;;;;;4149571;28;20180;-91
2023/10/14 10:24:23;;;;;;;3.45;0.90;;;16.10;99.90;;;;;;4165837;28;20211;-92
2023/10/14 10:26:24;;;;;;;3.00;0.85;;;16.20;99.90;;;;;;4165643;28;20200;-91
2023/10/14 10:28:27;;;;;;;2.38;0.55;;;16.50;99.90;;;;;;4149705;28;20173;-91
2023/10/14 10:30:28;;;;;;;5.47;1.13;;;16.60;99.90;;;;;;4136885;28;20217;-92
2023/10/14 10:32:33;;;;;;;0.47;0.35;;;16.60;99.90;;;;;;4132948;28;20174;-88
2023/10/14 10:34:54;;;;;;;8.85;1.67;;;16.80;99.90;;;;;;4149526;28;20179;-92
2023/10/14 10:36:55;;;;;;;22.20;1.08;;;17.10;99.90;;;;;;4149660;28;20228;-91
2023/10/14 10:39:16;;;;;;;4.05;1.27;;;17.00;99.90;;;;;;4133958;28;20244;-92
2023/10/14 10:41:26;;;;;;;3.60;0.30;;;16.20;99.90;;;;;;4149704;28;20243;-90
2023/10/14 10:43:30;;;;;;;2.92;0.70;;;16.10;99.90;;;;;;4166008;28;20208;-92
2023/10/14 10:45:33;;;;;;;2.58;0.40;;;15.40;99.90;;;;;;4149078;28;20585;-90
2023/10/14 10:47:44;;;;;;;5.53;0.77;;;15.10;99.90;;;;;;4149756;28;20173;-91
2023/10/14 10:50:02;;;;;;;6.47;1.20;;;14.90;99.90;;;;;;4165917;28;20184;-91
2023/10/14 10:52:13;;;;;;;2.00;0.40;;;14.50;99.90;;;;;;4165821;28;20199;-90
2023/10/14 10:54:16;;;;;;;2.70;0.85;;;14.20;99.90;;;;;;4166177;28;20199;-91
2023/10/14 10:56:19;;;;;;;3.85;0.95;;;13.90;99.90;;;;;;4148924;28;20285;-90
2023/10/14 10:58:20;;;;;;;2.08;0.45;;;13.50;99.90;;;;;;4148943;28;20533;-90
2023/10/14 11:00:22;;;;;;;5.93;0.43;;;13.50;99.90;;;;;;4137579;28;20228;-90
2023/10/14 11:02:23;;;;;;;6.50;1.10;;;13.50;99.90;;;;;;4165132;28;20238;-89
2023/10/14 11:04:24;;;;;;;8.52;0.68;;;13.50;99.90;;;;;;4132809;28;20201;-91
2023/10/14 11:06:25;;;;;;;1.08;0.38;;;13.60;99.90;;;;;;4148624;28;20203;-89
2023/10/14 11:08:26;;;;;;;3.05;0.85;;;13.80;99.90;;;;;;4148717;28;20227;-90
2023/10/14 11:10:33;;;;;;;3.03;0.38;;;13.80;99.90;;;;;;4144928;28;20169;-90
2023/10/14 11:12:35;;;;;;;3.40;0.47;;;13.90;99.90;;;;;;4148964;28;20180;-91
2023/10/14 11:14:36;;;;;;;1.35;0.28;;;13.80;99.90;;;;;;4180646;28;20648;-90
2023/10/14 11:16:42;;;;;;;1.65;0.38;;;14.10;99.90;;;;;;4164654;28;20556;-91
2023/10/14 11:18:49;;;;;;;1.67;0.57;;;14.20;99.90;;;;;;4164647;28;20263;-92
2023/10/14 11:20:50;;;;;;;7.90;0.38;;;14.20;99.90;;;;;;4148881;28;20546;-91
2023/10/14 11:22:55;;;;;;;4.60;0.68;;;14.60;99.90;;;;;;4148335;28;20169;-91
2023/10/14 11:24:58;;;;;;;1.27;0.50;;;14.80;99.90;;;;;;4164924;28;20216;-92
2023/10/14 11:27:00;;;;;;;3.10;0.40;;;14.90;99.90;;;;;;4164898;28;20211;-90
2023/10/14 11:29:01;;;;;;;3.58;0.28;;;14.70;99.90;;;;;;4164906;28;20187;-92
2023/10/14 11:31:01;;;;;;;3.83;0.40;;;14.70;99.90;;;;;;4165255;28;20208;-91
2023/10/14 11:33:02;;;;;;;2.45;0.75;;;14.70;99.90;;;;;;4148691;28;20188;-92
2023/10/14 11:35:05;;;;;;;2.00;0.30;;;14.80;99.90;;;;;;4148877;28;20639;-91
2023/10/14 11:37:10;;;;;;;1.38;0.38;;;14.90;99.90;;;;;;4165215;28;20203;-91
2023/10/14 11:39:13;;;;;;;5.15;0.60;;;15.00;99.90;;;;;;4162954;28;20178;-91
2023/10/14 11:41:15;;;;;;;1.42;0.30;;;15.00;99.90;;;;;;4131981;28;20178;-92
2023/10/14 11:43:21;;;;;;;3.70;0.80;;;15.30;99.90;;;;;;4132140;28;20570;-91
2023/10/14 11:45:22;;;;;;;0.93;0.30;;;15.60;99.90;;;;;;4131736;28;20188;-92
2023/10/14 11:47:28;;;;;;;2.83;0.38;;;15.70;99.90;;;;;;4131860;28;20192;-91
2023/10/14 11:49:30;;;;;;;2.40;0.43;;;15.80;99.90;;;;;;4152646;28;20184;-91
2023/10/14 11:51:36;;;;;;;3.65;0.82;;;15.90;99.90;;;;;;4164255;28;20172;-92
2023/10/14 11:53:43;;;;;;;6.07;0.52;;;16.30;99.90;;;;;;4148099;28;20173;-92
2023/10/14 11:55:44;;;;;;;3.35;0.70;;;16.20;99.90;;;;;;4148162;28;20521;-90
2023/10/14 11:57:47;;;;;;;2.55;0.47;;;16.20;99.90;;;;;;4164540;28;21332;-91
2023/10/14 11:59:48;;;;;;;2.88;0.30;;;16.10;99.90;;;;;;4164281;28;20899;-90
2023/10/14 12:01:49;;;;;;;3.08;0.55;;;15.90;99.90;;;;;;4147607;28;20173;-92
2023/10/14 12:03:50;;;;;;;5.13;0.82;;;16.00;99.90;;;;;;4147784;28;20672;-91
2023/10/14 12:05:58;;;;;;;3.72;0.47;;;16.10;99.90;;;;;;4164146;28;20172;-92
2023/10/14 12:08:01;;;;;;;1.38;0.20;;;16.20;99.90;;;;;;4148066;28;20174;-89
2023/10/14 12:10:05;;;;;;;3.25;0.65;;;16.50;99.90;;;;;;4164182;28;20266;-90
2023/10/14 12:12:06;;;;;;;5.03;0.45;;;16.60;99.90;;;;;;4163818;28;20175;-91
2023/10/14 12:14:11;;;;;;;1.08;0.38;;;16.70;99.90;;;;;;4164510;28;20169;-92
2023/10/14 12:16:12;;;;;;;1.73;0.50;;;16.60;99.90;;;;;;4148169;28;20244;-91
2023/10/14 12:18:15;;;;;;;1.60;0.45;;;16.30;99.90;;;;;;4164747;28;20197;-91
2023/10/14 12:20:16;;;;;;;3.75;0.47;;;16.00;99.90;;;;;;4153740;28;20339;-92
2023/10/14 12:22:17;;;;;;;3.08;0.30;;;15.70;99.90;;;;;;4147893;28;20184;-90
2023/10/14 12:24:18;;;;;;;3.58;0.47;;;15.50;99.90;;;;;;4147992;28;20216;-91
2023/10/14 12:26:19;;;;;;;6.82;0.70;;;15.60;99.90;;;;;;4133509;28;20204;-92
2023/10/14 12:28:26;;;;;;;3.05;0.47;;;15.60;99.90;;;;;;4151250;28;20764;-92
2023/10/14 12:30:40;;;;;;;2.47;0.40;;;15.70;99.90;;;;;;4147450;28;20189;-92
2023/10/14 12:32:42;;;;;;;1.95;0.30;;;15.80;99.90;;;;;;4151524;28;20624;-92
2023/10/14 12:34:45;;;;;;;4.10;0.73;;;15.90;99.90;;;;;;4151676;28;20204;-93
2023/10/14 12:36:46;;;;;;;1.48;0.30;;;15.80;99.90;;;;;;4167915;28;20728;-90
2023/10/14 12:38:47;;;;;;;4.68;0.50;;;16.00;99.90;;;;;;4151812;28;20180;-92
2023/10/14 12:40:49;;;;;;;7.55;0.50;;;15.90;99.90;;;;;;4136309;28;20656;-91
2023/10/14 12:42:54;;;;;;;1.90;0.60;;;15.80;99.90;;;;;;4151137;28;20173;-92
2023/10/14 12:44:55;;;;;;;8.63;0.63;;;15.60;99.90;;;;;;4135241;28;20637;-92
2023/10/14 12:46:56;;;;;;;3.33;0.32;;;15.40;99.90;;;;;;4151353;28;20203;-90
2023/10/14 12:48:57;;;;;;;6.25;0.60;;;15.40;99.90;;;;;;4151178;28;20173;-94
2023/10/14 12:50:57;;;;;;;3.95;0.40;;;15.80;99.90;;;;;;4134563;28;20276;-93
2023/10/14 12:53:03;;;;;;;4.32;0.75;;;15.90;99.90;;;;;;4150996;28;20183;-90
2023/10/14 12:55:13;;;;;;;2.00;0.35;;;15.80;99.90;;;;;;4134873;28;20272;-91
2023/10/14 12:57:14;;;;;;;1.23;0.38;;;15.50;99.90;;;;;;4134464;28;20193;-91
2023/10/14 12:59:15;;;;;;;3.42;0.50;;;15.40;99.90;;;;;;4137072;28;20260;-90
2023/10/14 13:01:18;;;;;;;4.32;0.45;;;15.40;99.90;;;;;;4167342;28;20171;-90
2023/10/14 13:03:18;;;;;;;2.78;0.30;;;15.30;99.90;;;;;;4150752;28;20229;-91